Time;durP1;ratioP1;P1;durP2;ratioP2;P2;SDS_P1;SDS_P2;PMS_P1;PMS_P2;Temp;Humidity;BMP_temperature;BMP_pressure;BME280_temperature;BME280_humidity;BME280_pressure;Samples;Min_cycle;Max_cycle;Signal;HPM_P1;HPM_P2
2022/03/09 00:02:01;;;;;;;9.33;6.63;;;2.20;57.30;;;;;;5027755;28;20957;-46
2022/03/09 00:04:29;;;;;;;7.50;6.10;;;2.20;57.40;;;;;;5014092;28;20523;-46
2022/03/09 00:06:55;;;;;;;11.93;7.23;;;2.10;57.30;;;;;;5007028;28;20570;-46
2022/03/09 00:09:24;;;;;;;9.67;7.30;;;2.10;57.30;;;;;;5021320;28;20459;-46
2022/03/09 00:11:50;;;;;;;7.67;6.27;;;2.10;57.30;;;;;;5024082;28;20490;-46
2022/03/09 00:14:17;;;;;;;7.40;5.80;;;2.00;57.60;;;;;;5025389;28;20455;-46
2022/03/09 00:16:44;;;;;;;9.57;6.70;;;2.00;58.20;;;;;;5040279;28;20454;-45
2022/03/09 00:19:11;;;;;;;8.23;6.07;;;2.10;58.50;;;;;;5026641;28;20459;-45
2022/03/09 00:21:38;;;;;;;13.60;6.80;;;2.10;58.60;;;;;;5022131;28;20822;-45
2022/03/09 00:24:05;;;;;;;10.33;7.90;;;2.10;58.70;;;;;;5022902;28;20455;-45
2022/03/09 00:26:32;;;;;;;8.80;5.67;;;2.20;58.00;;;;;;5021605;28;20483;-46
2022/03/09 00:28:59;;;;;;;7.73;5.70;;;2.10;57.80;;;;;;5006380;28;20464;-45
2022/03/09 00:31:26;;;;;;;8.33;5.93;;;2.10;57.80;;;;;;5019861;28;20981;-45
2022/03/09 00:33:52;;;;;;;6.90;5.57;;;2.00;58.00;;;;;;5023241;28;20448;-45
2022/03/09 00:36:19;;;;;;;13.60;6.80;;;1.90;58.10;;;;;;5022986;28;20470;-46
2022/03/09 00:38:46;;;;;;;5.80;4.67;;;1.90;58.30;;;;;;5022915;28;20461;-45
2022/03/09 00:41:14;;;;;;;8.53;6.07;;;1.80;58.30;;;;;;5023674;28;20447;-46
2022/03/09 00:43:42;;;;;;;9.23;6.23;;;1.80;58.70;;;;;;5024005;28;20448;-46
2022/03/09 00:46:11;;;;;;;9.07;6.53;;;1.80;58.50;;;;;;5027472;28;20493;-46
2022/03/09 00:48:39;;;;;;;10.07;6.87;;;1.80;58.80;;;;;;5024846;28;20984;-46
2022/03/09 00:51:07;;;;;;;9.23;7.07;;;1.80;58.80;;;;;;5024856;28;20815;-46
2022/03/09 00:53:37;;;;;;;7.77;5.30;;;1.70;58.70;;;;;;5023454;28;20937;-47
2022/03/09 00:56:04;;;;;;;7.50;5.40;;;1.70;58.70;;;;;;5020558;28;22132;-46
2022/03/09 00:58:32;;;;;;;11.20;7.33;;;1.80;59.10;;;;;;5022076;28;20518;-46
2022/03/09 01:00:58;;;;;;;9.73;6.90;;;1.80;59.10;;;;;;5023398;28;20458;-46
2022/03/09 01:03:25;;;;;;;10.03;5.70;;;1.80;59.10;;;;;;5013104;28;20463;-46
2022/03/09 01:05:52;;;;;;;10.27;5.97;;;1.80;59.00;;;;;;5023624;28;20490;-46
2022/03/09 01:08:19;;;;;;;10.50;7.20;;;1.70;58.90;;;;;;5023561;28;20453;-46
2022/03/09 01:10:45;;;;;;;7.70;6.07;;;1.70;59.40;;;;;;5022524;28;20455;-46
2022/03/09 01:13:12;;;;;;;10.37;6.10;;;1.70;59.30;;;;;;5024049;28;20509;-46
2022/03/09 01:15:42;;;;;;;11.07;6.30;;;1.60;59.30;;;;;;5010376;28;20594;-45
2022/03/09 01:18:09;;;;;;;8.57;5.90;;;1.50;59.20;;;;;;5022999;28;20465;-45
2022/03/09 01:20:36;;;;;;;7.93;6.13;;;1.50;59.20;;;;;;5022418;28;20479;-46
2022/03/09 01:23:03;;;;;;;10.10;5.43;;;1.50;59.50;;;;;;5023775;28;20790;-46
2022/03/09 01:25:30;;;;;;;9.60;7.30;;;1.50;59.40;;;;;;5019881;28;20496;-46
2022/03/09 01:27:56;;;;;;;7.17;5.23;;;1.50;59.70;;;;;;5019086;28;20466;-46
2022/03/09 01:30:23;;;;;;;7.43;5.77;;;1.40;59.70;;;;;;5020695;28;20471;-46
2022/03/09 01:32:51;;;;;;;6.70;5.50;;;1.40;59.60;;;;;;5020610;28;20853;-46
2022/03/09 01:35:19;;;;;;;7.33;5.50;;;1.30;59.60;;;;;;5023898;28;20499;-46
2022/03/09 01:37:46;;;;;;;8.00;6.37;;;1.30;59.70;;;;;;5020441;28;20456;-46
2022/03/09 01:40:13;;;;;;;11.17;6.47;;;1.30;60.80;;;;;;5036657;28;20827;-46
2022/03/09 01:42:40;;;;;;;10.07;5.90;;;1.30;60.60;;;;;;5021455;28;20468;-46
2022/03/09 01:45:10;;;;;;;11.37;7.13;;;1.30;60.30;;;;;;5006288;28;20490;-46
2022/03/09 01:47:37;;;;;;;9.93;5.87;;;1.30;60.10;;;;;;5023070;28;20880;-45
2022/03/09 01:50:05;;;;;;;10.00;6.43;;;1.20;60.20;;;;;;5034963;28;20466;-45
2022/03/09 01:52:33;;;;;;;10.33;5.50;;;1.20;60.30;;;;;;5023151;28;20473;-45
2022/03/09 01:55:03;;;;;;;16.00;6.00;;;1.20;60.70;;;;;;5019697;28;20487;-45
2022/03/09 01:57:30;;;;;;;7.70;5.60;;;1.20;60.40;;;;;;5006721;28;20459;-45
2022/03/09 01:59:57;;;;;;;7.60;6.23;;;1.10;60.30;;;;;;5005409;28;20452;-45
2022/03/09 02:02:24;;;;;;;10.20;6.43;;;1.10;60.30;;;;;;5006110;28;20466;-45
2022/03/09 02:04:52;;;;;;;12.93;6.43;;;1.10;60.70;;;;;;5021852;28;20467;-45
2022/03/09 02:09:41;;;;;;;8.30;6.10;;;1.10;60.80;;;;;;5021641;28;20488;-45
2022/03/09 02:10:07;;;;;;;8.00;5.93;;;1.20;60.80;;;;;;5019474;28;20549;-45
2022/03/09 02:12:34;;;;;;;12.17;6.80;;;1.20;61.10;;;;;;5019258;28;20452;-45
2022/03/09 02:15:02;;;;;;;10.23;6.30;;;1.20;61.00;;;;;;5000507;28;20967;-46
2022/03/09 02:17:29;;;;;;;10.80;6.40;;;1.10;60.90;;;;;;5019845;28;20479;-46
2022/03/09 02:19:57;;;;;;;7.43;5.77;;;1.00;60.90;;;;;;5019573;28;20476;-46
2022/03/09 02:22:38;;;;;;;10.60;6.23;;;1.00;60.90;;;;;;5023845;28;20461;-46
2022/03/09 02:25:09;;;;;;;9.73;6.20;;;1.00;61.50;;;;;;5023609;28;20472;-46
2022/03/09 02:27:36;;;;;;;9.83;6.43;;;1.00;61.40;;;;;;5019427;28;20460;-45
2022/03/09 02:30:05;;;;;;;9.10;7.20;;;1.00;61.30;;;;;;5019583;28;20452;-45
2022/03/09 02:32:32;;;;;;;8.60;6.03;;;0.90;61.20;;;;;;5018083;28;20532;-45
2022/03/09 02:34:59;;;;;;;9.53;7.17;;;0.90;61.30;;;;;;5020151;28;20462;-45
2022/03/09 02:37:26;;;;;;;9.33;5.60;;;0.90;61.70;;;;;;5019666;28;20555;-45
2022/03/09 02:39:53;;;;;;;7.57;5.83;;;0.90;62.00;;;;;;5005655;28;20486;-46
2022/03/09 02:42:19;;;;;;;10.00;6.53;;;0.90;62.00;;;;;;5009576;28;20475;-46
2022/03/09 02:44:46;;;;;;;8.77;6.00;;;0.90;61.80;;;;;;5019249;28;20469;-46
2022/03/09 02:47:13;;;;;;;8.37;6.10;;;0.90;61.90;;;;;;5019882;28;20498;-46
2022/03/09 02:49:40;;;;;;;10.43;6.60;;;0.90;61.70;;;;;;5021209;28;21298;-46
2022/03/09 02:52:06;;;;;;;11.70;6.90;;;0.90;61.70;;;;;;5022427;28;20461;-46
2022/03/09 02:54:33;;;;;;;7.40;6.57;;;0.90;61.90;;;;;;5020578;28;20490;-46
2022/03/09 02:57:00;;;;;;;12.57;6.73;;;0.90;62.10;;;;;;5020255;28;20472;-46
2022/03/09 02:59:27;;;;;;;9.00;6.70;;;0.90;61.90;;;;;;5015084;28;20455;-46
2022/03/09 03:01:54;;;;;;;14.33;6.10;;;0.90;62.00;;;;;;5040649;28;21210;-46
2022/03/09 03:04:21;;;;;;;9.77;6.03;;;1.00;62.10;;;;;;5026367;28;20922;-46
2022/03/09 03:06:48;;;;;;;12.03;7.77;;;0.90;62.10;;;;;;5021389;28;20523;-46
2022/03/09 03:09:14;;;;;;;7.70;6.13;;;0.90;62.20;;;;;;5013226;28;20530;-46
2022/03/09 03:11:44;;;;;;;8.43;7.10;;;0.80;62.30;;;;;;5027074;28;20804;-46
2022/03/09 03:14:12;;;;;;;8.77;6.17;;;0.80;62.60;;;;;;5023102;28;20526;-43
2022/03/09 03:16:39;;;;;;;10.50;6.40;;;0.80;62.50;;;;;;5017592;28;20534;-43
2022/03/09 03:19:06;;;;;;;7.57;5.77;;;0.80;62.70;;;;;;5023796;28;20940;-43
2022/03/09 03:21:33;;;;;;;12.60;7.47;;;0.80;62.60;;;;;;5022860;28;20463;-43
2022/03/09 03:24:00;;;;;;;15.23;7.67;;;0.70;62.70;;;;;;5020302;28;21069;-43
2022/03/09 03:26:28;;;;;;;10.27;6.97;;;0.70;63.50;;;;;;5023738;28;21749;-43
2022/03/09 03:28:55;;;;;;;9.63;5.87;;;0.80;63.50;;;;;;5010087;28;20464;-43
2022/03/09 03:31:22;;;;;;;8.83;6.40;;;0.70;63.30;;;;;;5019373;28;20466;-43
2022/03/09 03:33:50;;;;;;;7.97;6.53;;;0.70;63.70;;;;;;5019453;28;20460;-43
2022/03/09 03:36:17;;;;;;;9.93;6.07;;;0.70;63.70;;;;;;5016756;28;20467;-43
2022/03/09 03:38:44;;;;;;;7.87;6.70;;;0.70;63.70;;;;;;5020264;28;20463;-43
2022/03/09 03:41:11;;;;;;;10.27;6.10;;;0.70;63.60;;;;;;5017737;28;20879;-43
2022/03/09 03:43:38;;;;;;;11.70;7.87;;;0.70;63.70;;;;;;5019470;28;20467;-43
2022/03/09 03:46:05;;;;;;;10.00;7.07;;;0.70;63.80;;;;;;5004808;28;20496;-43
2022/03/09 03:48:32;;;;;;;11.17;7.10;;;0.70;63.90;;;;;;5014256;28;20630;-43
2022/03/09 03:50:59;;;;;;;9.40;7.47;;;0.70;64.40;;;;;;5033400;28;21007;-43
2022/03/09 03:53:26;;;;;;;9.60;7.10;;;0.80;64.40;;;;;;5017245;28;20694;-43
2022/03/09 03:55:53;;;;;;;10.70;6.97;;;0.80;64.20;;;;;;5021418;28;20460;-43
2022/03/09 03:58:19;;;;;;;10.13;6.40;;;0.70;64.10;;;;;;5024292;28;20462;-43
2022/03/09 04:00:46;;;;;;;10.53;6.80;;;0.60;64.10;;;;;;5017713;28;20468;-43
2022/03/09 04:03:13;;;;;;;11.50;8.67;;;0.60;64.20;;;;;;5021528;28;20461;-43
2022/03/09 04:05:40;;;;;;;11.00;7.00;;;0.60;64.30;;;;;;5000298;28;20464;-42
2022/03/09 04:08:07;;;;;;;9.80;6.40;;;0.70;64.80;;;;;;5015567;28;20461;-42
2022/03/09 04:10:34;;;;;;;8.50;6.17;;;0.70;64.20;;;;;;5022212;28;20503;-42
2022/03/09 04:13:03;;;;;;;11.20;7.03;;;0.80;63.90;;;;;;5022023;28;20460;-42
2022/03/09 04:15:32;;;;;;;10.30;7.17;;;0.70;63.80;;;;;;5018506;28;20456;-42
2022/03/09 04:17:59;;;;;;;10.43;6.07;;;0.60;64.00;;;;;;5038361;28;21046;-42
2022/03/09 04:20:26;;;;;;;9.87;6.47;;;0.50;64.00;;;;;;5018851;28;20832;-42
2022/03/09 04:22:53;;;;;;;11.63;7.07;;;0.60;64.20;;;;;;5017040;28;20464;-42
2022/03/09 04:25:20;;;;;;;11.03;7.13;;;0.50;64.10;;;;;;5016138;28;20550;-42
2022/03/09 04:27:47;;;;;;;9.53;7.67;;;0.60;63.90;;;;;;5018517;28;20496;-42
2022/03/09 04:30:13;;;;;;;7.13;5.70;;;0.60;63.80;;;;;;5018040;28;20452;-42
2022/03/09 04:32:40;;;;;;;10.20;7.43;;;0.60;63.70;;;;;;5019912;28;20470;-42
2022/03/09 04:35:08;;;;;;;12.70;6.70;;;0.50;63.70;;;;;;5018740;28;20470;-42
2022/03/09 04:37:36;;;;;;;10.37;6.47;;;0.40;63.80;;;;;;5013045;28;20486;-42
2022/03/09 04:40:06;;;;;;;8.70;6.17;;;0.40;63.90;;;;;;5003338;28;20468;-42
2022/03/09 04:42:33;;;;;;;12.30;8.13;;;0.40;64.10;;;;;;5021419;28;20975;-42
2022/03/09 04:45:00;;;;;;;9.30;7.20;;;0.30;64.20;;;;;;5020023;28;20471;-42
2022/03/09 04:47:28;;;;;;;8.60;6.37;;;0.30;64.10;;;;;;5007583;28;20492;-43
2022/03/09 04:49:55;;;;;;;10.07;6.60;;;0.30;64.10;;;;;;5020392;28;20452;-43
2022/03/09 04:52:22;;;;;;;8.67;6.37;;;0.20;64.30;;;;;;5014095;28;20456;-43
2022/03/09 04:54:48;;;;;;;11.57;7.00;;;0.30;64.70;;;;;;4991828;28;20463;-43
2022/03/09 04:57:15;;;;;;;8.23;6.70;;;0.30;64.80;;;;;;5002702;28;20468;-43
2022/03/09 04:59:42;;;;;;;7.57;5.97;;;0.30;64.70;;;;;;5018421;28;20499;-43
2022/03/09 05:02:09;;;;;;;15.60;7.70;;;0.30;64.60;;;;;;5021914;28;20474;-43
2022/03/09 05:04:37;;;;;;;10.40;6.90;;;0.20;64.60;;;;;;5002490;28;20758;-43
2022/03/09 05:07:04;;;;;;;8.13;7.20;;;0.20;64.70;;;;;;5000182;28;20844;-42
2022/03/09 05:09:31;;;;;;;7.43;6.73;;;0.10;64.90;;;;;;5016036;28;20460;-43
2022/03/09 05:11:59;;;;;;;11.07;7.27;;;0.10;65.00;;;;;;5020401;28;20464;-42
2022/03/09 05:14:26;;;;;;;9.50;7.13;;;0.10;65.20;;;;;;5020112;28;20850;-43
2022/03/09 05:16:53;;;;;;;11.60;7.37;;;0.10;65.30;;;;;;5020690;28;20826;-43
2022/03/09 05:19:20;;;;;;;11.03;8.37;;;0.10;65.30;;;;;;5031318;28;20466;-43
2022/03/09 05:21:47;;;;;;;11.77;7.47;;;0.20;66.00;;;;;;5017437;28;20471;-42
2022/03/09 05:24:34;;;;;;;10.80;6.60;;;0.30;65.60;;;;;;5017774;28;20461;-42
2022/03/09 05:27:00;;;;;;;10.53;7.07;;;0.30;65.30;;;;;;5003186;28;20484;-42
2022/03/09 05:29:27;;;;;;;11.27;7.93;;;0.20;65.30;;;;;;5019175;28;20551;-42
2022/03/09 05:31:54;;;;;;;7.83;5.80;;;0.20;65.50;;;;;;5003581;28;20976;-43
2022/03/09 05:34:21;;;;;;;7.73;6.87;;;0.20;65.70;;;;;;5017412;28;20463;-43
2022/03/09 05:36:48;;;;;;;14.10;7.00;;;0.20;65.30;;;;;;5017848;28;20916;-42
2022/03/09 05:39:15;;;;;;;8.63;7.40;;;0.10;65.30;;;;;;5017817;28;21080;-42
2022/03/09 05:41:42;;;;;;;9.10;6.77;;;0.00;65.60;;;;;;5019331;28;21231;-42
2022/03/09 05:44:08;;;;;;;11.07;7.60;;;0.00;65.80;;;;;;5015713;28;20473;-42
2022/03/09 05:46:35;;;;;;;11.93;7.50;;;0.00;65.80;;;;;;5015377;28;20921;-42
2022/03/09 05:49:02;;;;;;;12.57;8.00;;;0.00;66.00;;;;;;5000469;28;21014;-42
2022/03/09 05:51:29;;;;;;;10.70;7.00;;;-0.10;66.00;;;;;;5017765;28;20491;-43
2022/03/09 05:53:56;;;;;;;11.83;8.03;;;0.00;66.10;;;;;;5018744;28;20543;-43
2022/03/09 05:56:24;;;;;;;9.73;7.27;;;-0.10;66.10;;;;;;5018642;28;20462;-43
2022/03/09 05:58:51;;;;;;;11.00;7.10;;;0.00;66.50;;;;;;5016072;28;20461;-43
2022/03/09 06:01:20;;;;;;;11.03;7.30;;;0.00;66.30;;;;;;5019787;28;20496;-43
2022/03/09 06:03:47;;;;;;;12.73;6.90;;;-0.10;66.50;;;;;;5020772;28;20995;-43
2022/03/09 06:06:14;;;;;;;12.50;7.70;;;0.00;66.40;;;;;;5016171;28;21188;-43
2022/03/09 06:08:41;;;;;;;9.83;7.30;;;0.10;66.30;;;;;;5015766;28;20458;-42
2022/03/09 06:11:08;;;;;;;13.30;7.80;;;0.00;66.20;;;;;;5013960;28;20522;-43
2022/03/09 06:13:34;;;;;;;13.57;7.30;;;-0.10;66.40;;;;;;5017334;28;20513;-43
2022/03/09 06:16:01;;;;;;;10.90;7.37;;;0.00;66.90;;;;;;5015993;28;21569;-43
2022/03/09 06:18:29;;;;;;;15.73;7.73;;;0.00;66.70;;;;;;5014974;28;20819;-43
2022/03/09 06:20:56;;;;;;;12.63;7.53;;;-0.10;66.70;;;;;;5017021;28;20461;-43
2022/03/09 06:23:22;;;;;;;9.83;7.17;;;-0.10;66.70;;;;;;5016712;28;20704;-43
2022/03/09 06:25:53;;;;;;;10.70;6.97;;;-0.10;66.70;;;;;;5015785;28;21027;-42
2022/03/09 06:28:19;;;;;;;10.00;6.83;;;-0.10;66.80;;;;;;5012615;28;20494;-42
2022/03/09 06:30:46;;;;;;;9.53;8.40;;;-0.10;67.20;;;;;;5017608;28;20494;-43
2022/03/09 06:33:14;;;;;;;8.90;7.00;;;0.00;67.10;;;;;;5019534;28;20490;-42
2022/03/09 06:35:41;;;;;;;17.50;8.77;;;0.00;67.00;;;;;;5020331;28;20554;-42
2022/03/09 06:38:11;;;;;;;11.80;8.43;;;0.00;66.90;;;;;;5023002;28;20504;-43
2022/03/09 06:40:38;;;;;;;12.27;8.20;;;0.00;66.90;;;;;;5021320;28;21035;-43
2022/03/09 06:43:05;;;;;;;13.80;8.13;;;0.10;67.00;;;;;;5035845;28;20558;-43
2022/03/09 06:45:32;;;;;;;14.87;8.70;;;0.10;67.40;;;;;;5019229;28;20467;-43
2022/03/09 06:48:00;;;;;;;18.40;8.23;;;0.10;67.30;;;;;;5023563;28;20493;-43
2022/03/09 06:50:27;;;;;;;12.13;7.90;;;0.10;67.30;;;;;;5019356;28;20460;-43
2022/03/09 06:52:54;;;;;;;13.97;8.27;;;0.00;67.30;;;;;;5005539;28;20459;-42
2022/03/09 06:55:21;;;;;;;11.50;8.03;;;0.00;67.40;;;;;;5026241;28;21003;-42
2022/03/09 06:57:48;;;;;;;13.50;8.57;;;0.00;67.40;;;;;;5023745;28;20535;-43
2022/03/09 07:00:17;;;;;;;13.57;7.60;;;0.10;67.50;;;;;;5021369;28;20482;-43
2022/03/09 07:02:45;;;;;;;11.13;7.80;;;0.10;67.50;;;;;;5018784;28;20815;-43
2022/03/09 07:05:13;;;;;;;14.40;8.90;;;0.10;67.50;;;;;;5023429;28;20463;-43
2022/03/09 07:07:40;;;;;;;11.30;8.17;;;0.20;67.70;;;;;;5020916;28;20494;-43
2022/03/09 07:10:10;;;;;;;11.50;8.00;;;0.30;67.70;;;;;;5018378;28;20460;-43
2022/03/09 07:12:45;;;;;;;11.73;7.63;;;0.40;67.50;;;;;;5020450;28;20510;-43
2022/03/09 07:15:15;;;;;;;12.63;8.47;;;0.40;67.40;;;;;;5023295;28;20482;-43
2022/03/09 07:17:43;;;;;;;9.40;8.37;;;0.50;67.40;;;;;;5035052;28;20463;-43
2022/03/09 07:20:11;;;;;;;12.90;8.63;;;0.50;67.40;;;;;;5006714;28;21138;-43
2022/03/09 07:22:39;;;;;;;14.87;8.57;;;0.50;67.70;;;;;;5018911;28;20470;-43
2022/03/09 07:25:07;;;;;;;13.93;8.60;;;0.70;67.40;;;;;;5019668;28;20868;-43
2022/03/09 07:27:34;;;;;;;12.90;7.10;;;0.70;67.00;;;;;;5024770;28;20487;-44
2022/03/09 07:30:02;;;;;;;15.80;9.27;;;0.70;67.00;;;;;;5008999;28;20504;-43
2022/03/09 07:32:28;;;;;;;11.27;8.23;;;0.70;67.20;;;;;;5030511;28;20450;-43
2022/03/09 07:35:15;;;;;;;15.13;8.97;;;0.80;67.40;;;;;;5018051;28;20462;-43
2022/03/09 07:37:41;;;;;;;9.47;7.23;;;0.80;67.40;;;;;;5019877;28;20579;-43
2022/03/09 07:40:09;;;;;;;11.90;7.50;;;0.90;67.40;;;;;;5016586;28;20469;-43
2022/03/09 07:42:36;;;;;;;9.20;8.17;;;1.00;67.40;;;;;;5016241;28;20471;-42
2022/03/09 07:45:06;;;;;;;12.47;8.20;;;1.00;67.40;;;;;;5019702;28;20462;-43
2022/03/09 07:47:35;;;;;;;10.57;7.90;;;1.20;67.40;;;;;;5019828;28;20531;-44
2022/03/09 07:50:04;;;;;;;13.40;9.30;;;1.30;66.70;;;;;;5021475;28;20868;-44
2022/03/09 07:52:31;;;;;;;11.30;7.90;;;1.40;66.30;;;;;;5016403;28;20562;-44
2022/03/09 07:54:57;;;;;;;13.90;8.40;;;1.60;65.20;;;;;;5018513;28;20563;-44
2022/03/09 07:57:24;;;;;;;10.50;7.40;;;1.80;64.20;;;;;;5019905;28;20474;-44
2022/03/09 07:59:51;;;;;;;9.67;7.30;;;1.90;63.70;;;;;;5017921;28;20469;-43
2022/03/09 08:02:18;;;;;;;10.80;8.13;;;2.10;63.40;;;;;;5019794;28;20893;-42
2022/03/09 08:04:44;;;;;;;11.33;7.90;;;2.10;63.20;;;;;;5002677;28;21066;-42
2022/03/09 08:07:11;;;;;;;12.27;8.07;;;2.20;63.30;;;;;;5023451;28;20487;-42
2022/03/09 08:09:38;;;;;;;8.90;7.20;;;2.40;63.00;;;;;;5004609;28;20460;-42
2022/03/09 08:12:11;;;;;;;12.23;9.43;;;2.60;62.40;;;;;;5031315;28;20453;-42
2022/03/09 08:14:38;;;;;;;10.50;8.00;;;2.80;61.20;;;;;;5007717;28;20471;-43
2022/03/09 08:17:05;;;;;;;22.90;12.87;;;3.10;60.00;;;;;;5019651;28;20468;-43
2022/03/09 08:19:33;;;;;;;21.60;15.20;;;3.30;59.60;;;;;;5017605;28;20628;-43
2022/03/09 08:22:01;;;;;;;15.00;10.60;;;3.50;58.90;;;;;;5003270;28;20538;-43
2022/03/09 08:24:27;;;;;;;15.47;9.67;;;3.70;58.50;;;;;;5021794;28;20554;-43
2022/03/09 08:27:00;;;;;;;29.90;17.73;;;3.90;58.00;;;;;;5018054;28;20465;-43
2022/03/09 08:29:27;;;;;;;21.53;13.13;;;4.10;57.00;;;;;;5015183;28;20459;-42
2022/03/09 08:31:54;;;;;;;15.67;9.70;;;4.40;55.70;;;;;;5001528;28;20456;-43
2022/03/09 08:34:20;;;;;;;13.67;8.30;;;4.60;55.10;;;;;;5018435;28;21127;-42
2022/03/09 08:36:47;;;;;;;10.37;7.70;;;4.90;54.30;;;;;;5020053;28;20456;-42
2022/03/09 08:39:15;;;;;;;11.50;9.03;;;5.10;53.90;;;;;;5019095;28;21090;-42
2022/03/09 08:41:44;;;;;;;14.27;9.50;;;5.30;53.80;;;;;;5020969;28;20451;-42
2022/03/09 08:44:30;;;;;;;10.63;7.27;;;5.50;53.00;;;;;;5017693;28;20835;-43
2022/03/09 08:46:59;;;;;;;9.97;7.30;;;5.70;52.20;;;;;;5018147;28;21068;-43
2022/03/09 08:49:26;;;;;;;17.13;9.53;;;5.90;51.60;;;;;;5016497;28;20956;-43
2022/03/09 08:51:53;;;;;;;9.37;7.40;;;6.10;51.20;;;;;;5018155;28;20457;-43
2022/03/09 08:54:19;;;;;;;13.80;8.10;;;6.30;51.10;;;;;;5004775;28;20463;-43
2022/03/09 08:56:46;;;;;;;9.80;7.43;;;6.40;50.80;;;;;;5019510;28;20456;-43
2022/03/09 08:59:13;;;;;;;12.10;8.30;;;6.60;49.90;;;;;;5004481;28;20910;-43
2022/03/09 09:01:40;;;;;;;8.23;6.43;;;6.70;49.30;;;;;;5015605;28;20550;-43
2022/03/09 09:04:16;;;;;;;8.03;7.10;;;6.70;49.20;;;;;;5019343;28;20467;-43
2022/03/09 09:06:46;;;;;;;9.93;7.27;;;6.80;49.20;;;;;;5019982;28;20484;-43
2022/03/09 09:09:14;;;;;;;9.50;6.93;;;6.90;49.00;;;;;;5018746;28;20491;-42
2022/03/09 09:11:41;;;;;;;11.57;8.27;;;6.90;48.90;;;;;;5016182;28;20470;-43
2022/03/09 09:14:08;;;;;;;8.50;7.60;;;6.90;48.70;;;;;;5023266;28;20827;-43
2022/03/09 09:16:35;;;;;;;8.03;7.27;;;7.00;48.90;;;;;;5021089;28;20454;-43
2022/03/09 09:19:02;;;;;;;8.37;7.50;;;7.00;48.80;;;;;;5021045;28;20514;-43
2022/03/09 09:21:29;;;;;;;17.13;9.07;;;7.00;48.90;;;;;;5020332;28;20459;-42
2022/03/09 09:23:56;;;;;;;10.70;9.17;;;7.10;48.40;;;;;;5003828;28;20479;-43
2022/03/09 09:26:22;;;;;;;10.33;7.90;;;7.10;48.20;;;;;;5032143;28;20465;-42
2022/03/09 09:29:09;;;;;;;10.30;8.13;;;7.20;48.10;;;;;;5015789;28;20509;-42
2022/03/09 09:31:36;;;;;;;9.87;6.73;;;7.30;47.40;;;;;;5019067;28;20567;-42
2022/03/09 09:34:03;;;;;;;8.30;7.23;;;7.40;47.50;;;;;;5018380;28;20464;-42
2022/03/09 09:36:29;;;;;;;13.80;7.60;;;7.50;46.30;;;;;;5016479;28;20562;-43
2022/03/09 09:38:56;;;;;;;13.37;7.17;;;7.60;46.20;;;;;;5019840;28;20456;-43
2022/03/09 09:41:26;;;;;;;11.60;7.40;;;7.70;46.00;;;;;;5019062;28;20562;-43
2022/03/09 09:43:53;;;;;;;8.37;7.50;;;7.90;46.30;;;;;;5019644;28;20472;-43
2022/03/09 09:46:20;;;;;;;13.77;7.53;;;8.00;45.80;;;;;;5002677;28;20515;-43
2022/03/09 09:48:49;;;;;;;7.27;6.57;;;8.10;46.00;;;;;;5014436;28;20612;-43
2022/03/09 09:51:17;;;;;;;12.70;7.43;;;8.20;46.10;;;;;;4997861;28;20556;-43
2022/03/09 09:53:45;;;;;;;10.07;7.70;;;8.30;45.60;;;;;;5002886;28;21158;-43
2022/03/09 09:56:15;;;;;;;12.10;7.30;;;8.60;44.30;;;;;;5008113;28;20460;-43
2022/03/09 09:58:44;;;;;;;13.27;7.47;;;8.80;44.50;;;;;;5015301;28;20471;-43
2022/03/09 10:01:12;;;;;;;10.20;7.53;;;9.10;43.70;;;;;;5010071;28;20465;-43
2022/03/09 10:03:39;;;;;;;9.97;7.00;;;9.30;43.00;;;;;;5033925;28;20550;-42
2022/03/09 10:06:07;;;;;;;8.60;6.77;;;9.50;43.00;;;;;;5020941;28;21288;-43
2022/03/09 10:08:35;;;;;;;9.47;7.53;;;9.70;42.00;;;;;;5021227;28;20495;-43
2022/03/09 10:11:04;;;;;;;8.73;7.50;;;9.90;41.50;;;;;;5019244;28;20732;-42
2022/03/09 10:13:40;;;;;;;9.47;7.70;;;10.00;41.70;;;;;;5036783;28;20890;-43
2022/03/09 10:16:20;;;;;;;8.70;6.10;;;10.20;40.30;;;;;;5022895;28;20502;-43
2022/03/09 10:18:54;;;;;;;12.03;7.23;;;10.30;39.80;;;;;;5020131;28;20452;-43
2022/03/09 10:21:25;;;;;;;8.53;7.10;;;10.40;39.10;;;;;;5021691;28;20467;-43
2022/03/09 10:23:54;;;;;;;11.03;6.93;;;10.60;38.70;;;;;;5019534;28;20515;-43
2022/03/09 10:26:44;;;;;;;9.20;6.90;;;10.80;38.50;;;;;;5037469;28;21000;-43
2022/03/09 10:29:15;;;;;;;8.00;6.83;;;11.20;38.70;;;;;;5025774;28;20483;-42
2022/03/09 10:31:44;;;;;;;10.73;7.43;;;11.60;37.20;;;;;;5014711;28;20467;-43
2022/03/09 10:34:25;;;;;;;9.20;7.10;;;11.80;37.20;;;;;;5006637;28;20531;-43
2022/03/09 10:36:59;;;;;;;9.30;6.90;;;12.10;36.10;;;;;;5038949;28;21038;-43
2022/03/09 10:39:29;;;;;;;8.53;7.47;;;12.40;36.00;;;;;;5019524;28;20471;-43
2022/03/09 10:42:01;;;;;;;7.03;6.33;;;12.90;36.40;;;;;;5019460;28;20474;-43
2022/03/09 10:44:48;;;;;;;9.33;7.33;;;13.30;35.60;;;;;;5008277;28;20875;-43
2022/03/09 10:47:28;;;;;;;8.57;6.70;;;13.60;34.80;;;;;;5025067;28;20487;-43
2022/03/09 10:50:20;;;;;;;11.73;7.13;;;13.80;34.40;;;;;;5024733;28;20899;-43
2022/03/09 10:52:59;;;;;;;9.33;6.90;;;13.90;34.00;;;;;;5021411;28;20463;-43
2022/03/09 10:55:35;;;;;;;8.00;6.80;;;14.10;33.80;;;;;;5002919;28;20462;-43
2022/03/09 10:58:17;;;;;;;8.60;7.13;;;14.00;33.50;;;;;;5021348;28;20468;-43
2022/03/09 11:00:49;;;;;;;10.33;7.50;;;14.00;33.50;;;;;;5024934;28;20458;-43
2022/03/09 11:03:18;;;;;;;11.83;8.00;;;14.00;33.50;;;;;;5016313;28;20462;-43
2022/03/09 11:05:48;;;;;;;8.93;7.10;;;14.20;33.60;;;;;;5017338;28;21032;-43
2022/03/09 11:08:15;;;;;;;11.17;8.27;;;14.40;33.70;;;;;;5020213;28;20999;-43
2022/03/09 11:10:45;;;;;;;12.10;7.70;;;14.40;33.40;;;;;;5018627;28;20465;-43
2022/03/09 11:13:14;;;;;;;8.10;6.90;;;14.50;33.60;;;;;;5035412;28;20498;-43
2022/03/09 11:15:42;;;;;;;9.60;7.47;;;14.60;33.10;;;;;;5022215;28;20847;-43
2022/03/09 11:18:19;;;;;;;10.43;7.20;;;14.70;32.80;;;;;;5008225;28;20494;-43
2022/03/09 11:20:52;;;;;;;8.50;7.60;;;14.80;32.70;;;;;;5018991;28;20825;-43
2022/03/09 11:23:20;;;;;;;8.10;6.67;;;14.80;31.80;;;;;;5020695;28;20466;-43
2022/03/09 11:25:57;;;;;;;9.13;7.57;;;14.90;31.80;;;;;;5021901;28;20554;-43
2022/03/09 11:28:25;;;;;;;15.50;7.77;;;15.00;31.80;;;;;;5019309;28;20569;-43
2022/03/09 11:30:57;;;;;;;7.73;6.63;;;15.00;31.30;;;;;;5018477;28;21000;-43
2022/03/09 11:33:39;;;;;;;10.47;8.03;;;15.10;31.10;;;;;;5018406;28;20452;-43
2022/03/09 11:36:21;;;;;;;9.83;8.57;;;15.20;31.30;;;;;;5021656;28;21118;-43
2022/03/09 11:38:50;;;;;;;9.33;7.50;;;15.20;31.00;;;;;;5017771;28;20862;-43
2022/03/09 11:41:22;;;;;;;10.73;8.90;;;15.10;31.70;;;;;;5017815;28;20472;-43
2022/03/09 11:43:51;;;;;;;9.00;8.10;;;14.90;32.00;;;;;;5021578;28;20456;-43
2022/03/09 11:46:19;;;;;;;8.10;7.27;;;14.80;32.00;;;;;;5012599;28;20530;-43
2022/03/09 11:48:57;;;;;;;8.53;6.97;;;14.60;31.80;;;;;;5018938;28;20498;-43
2022/03/09 11:51:26;;;;;;;11.27;7.97;;;14.50;32.30;;;;;;5015560;28;20464;-43
2022/03/09 11:53:55;;;;;;;10.53;8.30;;;14.30;32.70;;;;;;5015895;28;20455;-43
2022/03/09 11:56:22;;;;;;;10.13;7.87;;;14.30;33.10;;;;;;5004990;28;20460;-43
2022/03/09 11:59:13;;;;;;;9.37;8.17;;;14.20;33.30;;;;;;5017088;28;20472;-43
2022/03/09 12:01:57;;;;;;;10.13;7.80;;;14.10;33.50;;;;;;5008665;28;20448;-43
2022/03/09 12:04:45;;;;;;;10.47;8.07;;;14.10;33.70;;;;;;5004892;28;20495;-43
2022/03/09 12:07:34;;;;;;;9.43;8.53;;;14.00;33.70;;;;;;5019935;28;20462;-43
2022/03/09 12:10:03;;;;;;;10.73;8.10;;;13.90;33.70;;;;;;5003562;28;20496;-44
2022/03/09 12:12:33;;;;;;;12.10;8.70;;;13.90;33.70;;;;;;5015270;28;20988;-44
2022/03/09 12:15:13;;;;;;;8.73;7.67;;;13.90;33.90;;;;;;5004369;28;20464;-44
2022/03/09 12:17:49;;;;;;;12.80;8.50;;;13.90;33.50;;;;;;5016762;28;20491;-43
2022/03/09 12:20:29;;;;;;;9.33;8.20;;;13.80;34.30;;;;;;5019845;28;20996;-44
2022/03/09 12:23:02;;;;;;;11.43;8.47;;;13.90;34.00;;;;;;5014085;28;22253;-43
2022/03/09 12:25:44;;;;;;;12.17;9.60;;;13.80;33.90;;;;;;5020171;28;20546;-43
2022/03/09 12:31:02;;;;;;;10.33;8.50;;;13.60;34.50;;;;;;5018246;28;20464;-43
2022/03/09 12:33:37;;;;;;;8.37;7.30;;;13.60;34.30;;;;;;5019921;28;20459;-43
2022/03/09 12:36:11;;;;;;;12.93;8.30;;;13.60;34.30;;;;;;5017366;28;20464;-43
2022/03/09 12:38:59;;;;;;;10.30;8.40;;;13.70;33.90;;;;;;5017669;28;20464;-43
2022/03/09 12:41:29;;;;;;;10.13;8.20;;;13.70;33.60;;;;;;5034401;28;20452;-43
2022/03/09 12:44:02;;;;;;;9.60;7.93;;;13.60;33.60;;;;;;5016877;28;20455;-44
2022/03/09 12:46:30;;;;;;;13.07;8.10;;;13.70;34.50;;;;;;5016273;28;20483;-43
2022/03/09 12:49:01;;;;;;;10.17;8.43;;;13.60;34.10;;;;;;5017157;28;21888;-44
2022/03/09 12:51:28;;;;;;;10.47;8.60;;;13.70;34.10;;;;;;5018659;28;20459;-44
2022/03/09 12:54:13;;;;;;;9.20;7.37;;;13.70;33.60;;;;;;5005462;28;20456;-44
2022/03/09 12:56:40;;;;;;;9.00;7.97;;;13.80;33.50;;;;;;5006315;28;20472;-44
2022/03/09 12:59:13;;;;;;;9.53;8.13;;;13.90;33.30;;;;;;5018315;28;20486;-43
2022/03/09 13:01:40;;;;;;;10.73;8.57;;;14.00;32.70;;;;;;5017075;28;20529;-43